createdAt,value
2023-03-02T00:01:35.453Z,64.30
2023-03-02T00:04:05.857Z,66.53
2023-03-02T00:06:35.721Z,64.23
2023-03-02T00:09:06.471Z,62.53
2023-03-02T00:11:37.218Z,60.43
2023-03-02T00:14:05.532Z,60.73
2023-03-02T00:16:34.077Z,59.67
2023-03-02T00:19:02.312Z,58.40
2023-03-02T00:21:31.833Z,59.07
2023-03-02T00:24:00.011Z,59.10
2023-03-02T00:26:29.612Z,63.00
2023-03-02T00:28:57.735Z,63.60
2023-03-02T00:31:25.980Z,61.37
2023-03-02T00:33:54.919Z,63.73
2023-03-02T00:36:24.334Z,68.03
2023-03-02T00:38:53.261Z,66.07
2023-03-02T00:41:22.638Z,64.10
2023-03-02T00:43:52.525Z,63.23
2023-03-02T00:46:22.391Z,65.17
2023-03-02T00:48:51.114Z,60.90
2023-03-02T00:51:19.433Z,62.40
2023-03-02T00:53:47.519Z,61.67
2023-03-02T00:56:15.809Z,59.23
2023-03-02T00:58:48.843Z,57.40
2023-03-02T01:01:18.911Z,56.67
2023-03-02T01:03:50.761Z,57.30
2023-03-02T01:06:22.111Z,56.17
2023-03-02T01:08:50.340Z,58.17
2023-03-02T01:11:20.853Z,57.20
2023-03-02T01:13:50.251Z,55.37
2023-03-02T01:16:19.838Z,57.47
2023-03-02T01:18:47.964Z,57.57
2023-03-02T01:21:17.092Z,53.77
2023-03-02T01:23:45.189Z,53.17
2023-03-02T01:26:13.241Z,54.47
2023-03-02T01:28:41.252Z,55.23
2023-03-02T01:31:09.307Z,54.10
2023-03-02T01:33:38.719Z,53.77
2023-03-02T01:36:07.738Z,53.53
2023-03-02T01:38:35.929Z,53.03
2023-03-02T01:41:04.011Z,54.83
2023-03-02T01:43:32.124Z,53.23
2023-03-02T01:46:02.034Z,50.77
2023-03-02T01:49:01.688Z,52.57
2023-03-02T01:51:48.883Z,50.40
2023-03-02T01:54:23.322Z,50.47
2023-03-02T01:57:01.098Z,49.10
2023-03-02T01:59:32.728Z,49.23
2023-03-02T02:02:05.151Z,50.80
2023-03-02T02:04:38.653Z,48.87
2023-03-02T02:07:09.284Z,50.00
2023-03-02T02:09:42.421Z,49.73
2023-03-02T02:12:15.106Z,52.10
2023-03-02T02:14:44.441Z,50.73
2023-03-02T02:17:13.466Z,53.00
2023-03-02T02:20:07.209Z,53.20
2023-03-02T02:22:49.070Z,52.57
2023-03-02T02:25:27.492Z,50.80
2023-03-02T02:27:58.501Z,54.50
2023-03-02T02:30:28.156Z,53.77
2023-03-02T02:32:58.361Z,51.27
2023-03-02T02:35:30.407Z,51.57
2023-03-02T02:38:04.367Z,49.17
2023-03-02T02:40:52.109Z,49.00
2023-03-02T02:43:25.436Z,46.53
2023-03-02T02:45:56.625Z,48.17
2023-03-02T02:48:31.290Z,48.77
2023-03-02T02:51:02.978Z,48.30
2023-03-02T02:53:39.599Z,47.97
2023-03-02T02:56:09.916Z,48.07
2023-03-02T02:58:44.441Z,48.17
2023-03-02T03:01:15.180Z,48.60
2023-03-02T03:03:51.349Z,49.17
2023-03-02T03:06:25.709Z,47.47
2023-03-02T03:08:58.109Z,58.20
2023-03-02T03:11:35.417Z,61.67
2023-03-02T03:14:08.752Z,63.43
2023-03-02T03:16:38.847Z,63.00
2023-03-02T03:19:13.553Z,60.03
2023-03-02T03:21:41.823Z,57.50
2023-03-02T03:24:10.028Z,57.37
2023-03-02T03:26:38.245Z,57.63
2023-03-02T03:29:08.954Z,59.93
2023-03-02T03:31:37.689Z,53.57
2023-03-02T03:34:07.249Z,53.80
2023-03-02T03:36:38.509Z,54.37
2023-03-02T03:39:07.877Z,53.17
2023-03-02T03:41:36.232Z,54.00
2023-03-02T03:44:04.871Z,55.70
2023-03-02T03:46:36.879Z,55.50
2023-03-02T03:49:06.088Z,60.57
2023-03-02T03:51:35.600Z,61.43
2023-03-02T03:54:08.186Z,60.17
2023-03-02T03:56:46.014Z,56.53
2023-03-02T03:59:19.130Z,54.37
2023-03-02T04:02:08.525Z,51.50
2023-03-02T04:04:43.087Z,51.67
2023-03-02T04:07:18.669Z,60.30
2023-03-02T04:09:48.024Z,64.87
2023-03-02T04:12:17.070Z,61.27
2023-03-02T04:14:50.974Z,60.60
2023-03-02T04:17:20.537Z,55.37
2023-03-02T04:19:50.466Z,48.60
2023-03-02T04:22:20.198Z,48.00
2023-03-02T04:24:49.367Z,45.57
2023-03-02T04:27:18.735Z,46.03
2023-03-02T04:29:47.362Z,46.40
2023-03-02T04:32:16.009Z,45.73
2023-03-02T04:34:49.753Z,48.20
2023-03-02T04:37:17.879Z,50.70
2023-03-02T04:39:50.189Z,49.87
2023-03-02T04:42:18.876Z,46.83
2023-03-02T04:44:46.954Z,45.13
2023-03-02T04:47:15.395Z,49.13
2023-03-02T04:49:43.542Z,47.43
2023-03-02T04:52:13.205Z,48.80
2023-03-02T04:54:41.253Z,47.63
2023-03-02T04:57:10.004Z,49.90
2023-03-02T04:59:38.178Z,49.30
2023-03-02T05:02:06.439Z,47.97
2023-03-02T05:04:34.778Z,47.60
2023-03-02T05:07:02.826Z,46.43
2023-03-02T05:09:32.253Z,48.97
2023-03-02T05:12:01.929Z,48.70
2023-03-02T05:14:30.801Z,47.77
2023-03-02T05:16:59.183Z,46.77
2023-03-02T05:19:27.347Z,46.10
2023-03-02T05:21:56.585Z,44.77
2023-03-02T05:24:24.755Z,44.17
2023-03-02T05:26:54.242Z,44.03
2023-03-02T05:29:22.385Z,44.37
2023-03-02T05:31:51.297Z,44.47
2023-03-02T05:34:19.781Z,42.97
2023-03-02T05:36:47.881Z,43.23
2023-03-02T05:39:16.094Z,43.50
2023-03-02T05:41:44.146Z,44.30
2023-03-02T05:44:19.587Z,41.90
2023-03-02T05:46:49.694Z,42.10
2023-03-02T05:49:17.830Z,42.63
2023-03-02T05:51:45.915Z,41.17
2023-03-02T05:54:14.020Z,43.50
2023-03-02T05:56:42.103Z,41.73
2023-03-02T05:59:10.171Z,41.50
2023-03-02T06:01:39.857Z,41.30
2023-03-02T06:04:08.024Z,40.80
2023-03-02T06:06:36.385Z,41.00
2023-03-02T06:09:04.771Z,41.10
2023-03-02T06:11:32.834Z,39.43
2023-03-02T06:14:00.930Z,41.63
2023-03-02T06:16:29.038Z,42.27
2023-03-02T06:18:58.596Z,42.40
2023-03-02T06:21:27.001Z,44.10
2023-03-02T06:23:55.017Z,42.67
2023-03-02T06:26:23.066Z,43.60
2023-03-02T06:28:53.603Z,43.27
2023-03-02T06:31:22.448Z,44.43
2023-03-02T06:33:50.700Z,43.03
2023-03-02T06:36:20.431Z,43.93
2023-03-02T06:38:48.655Z,41.33
2023-03-02T06:41:17.167Z,41.47
2023-03-02T06:43:45.256Z,42.23
2023-03-02T06:46:13.814Z,46.47
2023-03-02T06:48:41.856Z,46.23
2023-03-02T06:51:09.993Z,46.60
2023-03-02T06:53:39.569Z,44.83
2023-03-02T06:56:08.850Z,46.40
2023-03-02T06:58:37.029Z,46.03
2023-03-02T07:01:07.919Z,45.93
2023-03-02T07:03:37.311Z,48.07
2023-03-02T07:06:05.822Z,47.43
2023-03-02T07:08:33.975Z,45.23
2023-03-02T07:11:06.628Z,43.23
2023-03-02T07:13:34.754Z,42.37
2023-03-02T07:16:07.487Z,44.27
2023-03-02T07:18:35.658Z,43.80
2023-03-02T07:21:03.712Z,43.30
2023-03-02T07:23:31.787Z,45.00
2023-03-02T07:25:59.991Z,44.17
2023-03-02T07:28:29.436Z,44.80
2023-03-02T07:30:57.537Z,42.13
2023-03-02T07:33:26.300Z,42.33
2023-03-02T07:35:54.464Z,43.67
2023-03-02T07:38:22.565Z,41.50
2023-03-02T07:40:50.744Z,40.03
2023-03-02T07:43:18.816Z,41.53
2023-03-02T07:45:48.268Z,39.50
2023-03-02T07:48:16.285Z,43.17
2023-03-02T07:50:44.417Z,43.07
2023-03-02T07:53:12.437Z,43.67
2023-03-02T07:55:41.965Z,45.17
2023-03-02T07:58:09.974Z,42.63
2023-03-02T08:00:41.193Z,42.93
2023-03-02T08:03:11.875Z,43.70
2023-03-02T08:05:40.035Z,44.53
2023-03-02T08:08:08.193Z,47.53
2023-03-02T08:10:36.774Z,45.87
2023-03-02T08:13:06.058Z,45.90
2023-03-02T08:15:34.102Z,43.80
2023-03-02T08:18:02.369Z,46.43
2023-03-02T08:20:31.836Z,45.80
2023-03-02T08:22:59.939Z,43.93
2023-03-02T08:25:28.991Z,45.60
2023-03-02T08:27:57.063Z,44.67
2023-03-02T08:30:25.548Z,45.87
2023-03-02T08:32:53.559Z,46.93
2023-03-02T08:35:22.299Z,44.70
2023-03-02T08:37:51.748Z,46.23
2023-03-02T08:40:20.149Z,46.20
2023-03-02T08:42:49.895Z,46.17
2023-03-02T08:45:19.587Z,43.80
2023-03-02T08:47:47.751Z,42.03
2023-03-02T08:50:15.942Z,43.83
2023-03-02T08:52:44.004Z,42.40
2023-03-02T08:55:14.037Z,42.43
2023-03-02T08:57:42.663Z,41.77
2023-03-02T09:00:14.846Z,40.33
2023-03-02T09:02:43.033Z,41.87
2023-03-02T09:05:12.382Z,42.27
2023-03-02T09:07:40.470Z,40.00
2023-03-02T09:10:09.173Z,40.73
2023-03-02T09:12:38.704Z,42.57
2023-03-02T09:15:07.958Z,41.53
2023-03-02T09:17:36.481Z,43.63
2023-03-02T09:20:04.915Z,40.37
2023-03-02T09:22:35.896Z,42.70
2023-03-02T09:25:04.080Z,42.80
2023-03-02T09:27:32.180Z,40.47
2023-03-02T09:30:01.615Z,39.87
2023-03-02T09:32:29.890Z,39.63
2023-03-02T09:34:57.954Z,40.47
2023-03-02T09:37:26.102Z,40.60
2023-03-02T09:39:54.305Z,40.83
2023-03-02T09:42:43.610Z,37.37
2023-03-02T09:45:24.878Z,36.67
2023-03-02T09:48:05.425Z,38.43
2023-03-02T09:50:36.609Z,39.10
2023-03-02T09:53:20.608Z,36.57
2023-03-02T09:55:54.851Z,36.80
2023-03-02T09:58:26.513Z,37.03
2023-03-02T10:00:56.140Z,35.20
2023-03-02T10:03:29.344Z,35.73
2023-03-02T10:05:58.013Z,35.10
2023-03-02T10:08:29.832Z,34.53
2023-03-02T10:11:06.776Z,33.90
2023-03-02T10:13:44.636Z,35.03
2023-03-02T10:16:24.599Z,34.13
2023-03-02T10:19:09.487Z,33.47
2023-03-02T10:21:40.715Z,33.70
2023-03-02T10:24:21.158Z,32.67
2023-03-02T10:26:54.371Z,32.00
2023-03-02T10:29:33.980Z,30.43
2023-03-02T10:32:17.469Z,29.73
2023-03-02T10:34:45.575Z,29.50
2023-03-02T10:37:19.588Z,30.00
2023-03-02T10:39:47.678Z,28.37
2023-03-02T10:42:19.634Z,29.07
2023-03-02T10:44:52.187Z,29.93
2023-03-02T10:47:26.188Z,29.07
2023-03-02T10:49:54.825Z,28.47
2023-03-02T10:52:24.552Z,28.57
2023-03-02T10:55:03.802Z,27.73
2023-03-02T10:57:37.818Z,26.70
2023-03-02T11:00:16.064Z,26.17
2023-03-02T11:02:52.642Z,26.70
2023-03-02T11:05:27.404Z,25.13
2023-03-02T11:07:56.912Z,25.40
2023-03-02T11:10:26.836Z,26.97
2023-03-02T11:12:55.171Z,27.83
2023-03-02T11:15:26.567Z,24.40
2023-03-02T11:18:01.935Z,24.07
2023-03-02T11:20:35.112Z,20.10
2023-03-02T11:23:14.341Z,20.73
2023-03-02T11:25:48.852Z,18.07
2023-03-02T11:28:31.883Z,20.93
2023-03-02T11:31:03.871Z,20.17
2023-03-02T11:33:38.543Z,20.53
2023-03-02T11:36:13.752Z,20.33
2023-03-02T11:38:48.237Z,21.00
2023-03-02T11:41:30.000Z,20.47
2023-03-02T11:44:02.196Z,20.60
2023-03-02T11:46:33.460Z,22.03
2023-03-02T11:49:06.596Z,20.83
2023-03-02T11:51:39.098Z,21.07
2023-03-02T11:54:20.441Z,20.77
2023-03-02T11:56:48.761Z,19.20
2023-03-02T11:59:20.917Z,17.83
2023-03-02T12:01:53.369Z,16.93
2023-03-02T12:04:33.432Z,16.40
2023-03-02T12:07:03.234Z,18.63
2023-03-02T12:09:36.254Z,18.83
2023-03-02T12:12:36.527Z,18.10
2023-03-02T12:15:28.049Z,17.73
2023-03-02T12:17:56.282Z,19.13
2023-03-02T12:20:28.709Z,19.67
2023-03-02T12:23:08.955Z,20.30
2023-03-02T12:25:51.370Z,20.00
2023-03-02T12:28:34.169Z,21.15
2023-03-02T12:31:19.874Z,22.60
2023-03-02T12:33:50.559Z,21.25
2023-03-02T12:36:28.278Z,22.13
2023-03-02T12:39:15.144Z,22.85
2023-03-02T12:42:10.886Z,23.35
2023-03-02T12:44:53.584Z,22.67
2023-03-02T12:47:27.702Z,23.90
2023-03-02T12:49:59.066Z,22.23
2023-03-02T12:52:33.678Z,22.50
2023-03-02T12:55:05.314Z,23.08
2023-03-02T12:57:33.857Z,22.13
2023-03-02T13:00:03.808Z,21.00
2023-03-02T13:02:33.947Z,20.52
2023-03-02T13:05:04.557Z,22.50
2023-03-02T13:07:41.282Z,23.33
2023-03-02T13:10:22.730Z,22.63
2023-03-02T13:12:50.927Z,22.77
2023-03-02T13:15:20.014Z,24.10
2023-03-02T13:17:55.529Z,21.40
2023-03-02T13:20:27.606Z,21.45
2023-03-02T13:22:57.655Z,21.70
2023-03-02T13:25:29.271Z,22.17
2023-03-02T13:28:00.770Z,22.08
2023-03-02T13:30:31.726Z,20.92
2023-03-02T13:33:03.320Z,21.77
2023-03-02T13:35:33.922Z,21.50
2023-03-02T13:38:06.189Z,20.52
2023-03-02T13:40:44.871Z,20.67
2023-03-02T13:43:38.265Z,19.95
2023-03-02T13:46:25.861Z,18.52
2023-03-02T13:49:09.107Z,18.08
2023-03-02T13:51:42.101Z,17.90
2023-03-02T13:54:22.216Z,19.63
2023-03-02T13:56:52.199Z,17.55
2023-03-02T13:59:22.310Z,17.80
2023-03-02T14:01:50.948Z,14.90
2023-03-02T14:04:23.417Z,14.75
2023-03-02T14:06:52.563Z,13.80
2023-03-02T14:09:22.355Z,13.75
2023-03-02T14:11:53.161Z,14.65
2023-03-02T14:14:23.691Z,14.20
2023-03-02T14:16:52.096Z,14.88
2023-03-02T14:19:20.452Z,15.07
2023-03-02T14:21:49.036Z,16.70
2023-03-02T14:24:17.107Z,15.82
2023-03-02T14:26:49.264Z,16.85
2023-03-02T14:29:22.906Z,16.63
2023-03-02T14:31:51.089Z,18.15
2023-03-02T14:34:19.490Z,17.52
2023-03-02T14:36:49.601Z,18.38
2023-03-02T14:39:22.947Z,18.40
2023-03-02T14:41:54.743Z,18.77
2023-03-02T14:44:23.881Z,17.90
2023-03-02T14:46:53.025Z,16.23
2023-03-02T14:49:21.605Z,16.77
2023-03-02T14:51:59.380Z,15.52
2023-03-02T14:54:28.448Z,17.30
2023-03-02T14:56:57.988Z,17.00
2023-03-02T14:59:26.034Z,16.90
2023-03-02T15:01:55.763Z,16.50
2023-03-02T15:04:25.896Z,18.50
2023-03-02T15:06:54.931Z,18.10
2023-03-02T15:09:23.004Z,19.00
2023-03-02T15:11:51.114Z,19.17
2023-03-02T15:14:20.663Z,19.05
2023-03-02T15:16:49.245Z,19.48
2023-03-02T15:19:17.290Z,18.70
2023-03-02T15:21:46.555Z,18.50
2023-03-02T15:24:14.676Z,19.83
2023-03-02T15:26:42.798Z,19.15
2023-03-02T15:29:11.133Z,19.25
2023-03-02T15:31:41.004Z,19.27
2023-03-02T15:34:09.195Z,19.55
2023-03-02T15:36:37.236Z,20.73
2023-03-02T15:39:07.896Z,19.40
2023-03-02T15:41:36.215Z,18.60
2023-03-02T15:44:04.438Z,19.75
2023-03-02T15:46:32.601Z,17.90
2023-03-02T15:49:02.190Z,18.85
2023-03-02T15:51:30.490Z,18.98
2023-03-02T15:53:59.439Z,20.02
2023-03-02T15:56:32.885Z,20.55
2023-03-02T15:59:07.128Z,19.97
2023-03-02T16:01:35.274Z,20.60
2023-03-02T16:04:04.754Z,20.50
2023-03-02T16:06:33.035Z,20.87
2023-03-02T16:09:01.182Z,20.67
2023-03-02T16:11:29.345Z,19.60
2023-03-02T16:13:57.440Z,20.20
2023-03-02T16:16:26.338Z,20.60
2023-03-02T16:18:55.539Z,20.30
2023-03-02T16:21:25.955Z,19.17
2023-03-02T16:23:54.819Z,19.60
2023-03-02T16:26:23.797Z,19.27
2023-03-02T16:28:51.957Z,20.20
2023-03-02T16:31:21.963Z,19.37
2023-03-02T16:33:51.722Z,19.43
2023-03-02T16:36:20.158Z,20.30
2023-03-02T16:38:50.660Z,20.20
2023-03-02T16:41:21.576Z,19.80
2023-03-02T16:43:56.615Z,19.68
2023-03-02T16:46:27.291Z,20.67
2023-03-02T16:48:55.820Z,19.83
2023-03-02T16:51:24.107Z,19.57
2023-03-02T16:53:53.709Z,20.50
2023-03-02T16:56:21.974Z,20.43
2023-03-02T16:58:50.146Z,21.20
2023-03-02T17:01:28.284Z,22.06
2023-03-02T17:03:57.520Z,24.90
2023-03-02T17:06:25.994Z,25.93
2023-03-02T17:08:55.611Z,24.80
2023-03-02T17:11:24.437Z,26.07
2023-03-02T17:13:52.654Z,25.83
2023-03-02T17:16:20.875Z,25.47
2023-03-02T17:18:49.002Z,25.43
2023-03-02T17:21:18.413Z,27.07
2023-03-02T17:23:48.160Z,27.90
2023-03-02T17:26:18.076Z,27.67
2023-03-02T17:28:46.208Z,26.90
2023-03-02T17:31:14.383Z,26.47
2023-03-02T17:33:42.532Z,26.77
2023-03-02T17:36:12.371Z,27.83
2023-03-02T17:38:40.851Z,27.93
2023-03-02T17:41:10.189Z,28.27
2023-03-02T17:43:43.962Z,29.43
2023-03-02T17:46:14.604Z,35.20
2023-03-02T17:48:43.972Z,51.17
2023-03-02T17:51:15.019Z,48.73
2023-03-02T17:53:43.376Z,47.07
2023-03-02T17:56:12.701Z,43.30
2023-03-02T17:58:45.300Z,42.87
2023-03-02T18:01:15.920Z,41.53
2023-03-02T18:03:45.674Z,42.27
2023-03-02T18:06:14.427Z,41.93
2023-03-02T18:08:42.622Z,44.57
2023-03-02T18:11:11.295Z,44.43
2023-03-02T18:13:40.273Z,43.40
2023-03-02T18:16:10.452Z,47.27
2023-03-02T18:18:38.839Z,45.77
2023-03-02T18:21:07.498Z,48.20
2023-03-02T18:23:35.711Z,46.67
2023-03-02T18:26:03.864Z,46.93
2023-03-02T18:28:32.028Z,48.77
2023-03-02T18:31:00.260Z,47.93
2023-03-02T18:33:29.811Z,49.90
2023-03-02T18:35:58.539Z,50.17
2023-03-02T18:38:30.845Z,46.97
2023-03-02T18:41:00.789Z,49.67
2023-03-02T18:43:29.759Z,50.80
2023-03-02T18:45:58.116Z,47.63
2023-03-02T18:48:26.466Z,50.27
2023-03-02T18:50:56.325Z,49.13
2023-03-02T18:53:24.629Z,50.80
2023-03-02T18:55:55.610Z,48.20
2023-03-02T18:58:25.349Z,48.23
2023-03-02T19:00:54.222Z,49.80
2023-03-02T19:03:22.487Z,49.40
2023-03-02T19:05:50.625Z,49.60
2023-03-02T19:08:20.665Z,52.67
2023-03-02T19:10:48.888Z,55.10
2023-03-02T19:13:17.133Z,59.10
2023-03-02T19:15:45.561Z,59.67
2023-03-02T19:18:16.227Z,58.17
2023-03-02T19:20:45.728Z,58.37
2023-03-02T19:23:14.276Z,58.67
2023-03-02T19:25:44.476Z,56.43
2023-03-02T19:28:12.838Z,55.90
2023-03-02T19:30:41.229Z,55.30
2023-03-02T19:33:10.028Z,57.80
2023-03-02T19:35:39.333Z,56.80
2023-03-02T19:38:08.544Z,56.93
2023-03-02T19:40:37.992Z,60.97
2023-03-02T19:43:07.803Z,57.53
2023-03-02T19:45:36.389Z,58.87
2023-03-02T19:48:05.895Z,57.77
2023-03-02T19:50:34.322Z,58.23
2023-03-02T19:53:02.631Z,58.70
2023-03-02T19:55:30.766Z,60.67
2023-03-02T19:58:02.082Z,60.83
2023-03-02T20:00:33.956Z,59.63
2023-03-02T20:03:02.132Z,59.87
2023-03-02T20:05:30.663Z,61.10
2023-03-02T20:07:59.909Z,60.20
2023-03-02T20:10:31.446Z,59.43
2023-03-02T20:13:00.899Z,62.80
2023-03-02T20:15:30.015Z,59.80
2023-03-02T20:18:02.637Z,60.20
2023-03-02T20:20:31.824Z,60.47
2023-03-02T20:23:00.361Z,59.40
2023-03-02T20:25:29.384Z,59.20
2023-03-02T20:27:58.459Z,60.57
2023-03-02T20:30:30.726Z,60.50
2023-03-02T20:33:02.008Z,59.40
2023-03-02T20:35:32.236Z,60.73
2023-03-02T20:38:02.497Z,58.40
2023-03-02T20:40:31.096Z,61.80
2023-03-02T20:42:59.312Z,58.30
2023-03-02T20:45:28.195Z,59.73
2023-03-02T20:47:56.587Z,58.43
2023-03-02T20:50:29.406Z,61.73
2023-03-02T20:52:57.851Z,60.00
2023-03-02T20:55:26.974Z,60.27
2023-03-02T20:57:55.359Z,61.47
2023-03-02T21:00:26.395Z,59.93
2023-03-02T21:02:54.915Z,60.73
2023-03-02T21:05:23.147Z,64.37
2023-03-02T21:07:53.048Z,63.50
2023-03-02T21:10:25.196Z,67.33
2023-03-02T21:12:53.373Z,65.27
2023-03-02T21:15:23.910Z,65.73
2023-03-02T21:17:54.652Z,67.23
2023-03-02T21:20:23.880Z,68.57
2023-03-02T21:22:53.392Z,64.20
2023-03-02T21:25:21.853Z,66.33
2023-03-02T21:27:50.162Z,65.27
2023-03-02T21:30:20.909Z,67.83
2023-03-02T21:32:49.531Z,68.33
2023-03-02T21:35:20.071Z,67.90
2023-03-02T21:37:50.220Z,69.33
2023-03-02T21:40:23.149Z,67.30
2023-03-02T21:42:51.360Z,70.80
2023-03-02T21:45:19.663Z,73.87
2023-03-02T21:47:48.317Z,71.47
2023-03-02T21:50:20.574Z,69.63
2023-03-02T21:52:48.667Z,72.43
2023-03-02T21:55:17.082Z,73.20
2023-03-02T21:57:46.508Z,71.10
2023-03-02T22:00:22.177Z,68.33
2023-03-02T22:02:50.856Z,70.17
2023-03-02T22:05:19.356Z,71.77
2023-03-02T22:07:47.756Z,74.00
2023-03-02T22:10:26.032Z,71.67
2023-03-02T22:12:58.607Z,69.80
2023-03-02T22:15:28.192Z,69.67
2023-03-02T22:17:56.687Z,67.17
2023-03-02T22:20:25.140Z,68.53
2023-03-02T22:22:55.292Z,69.57
2023-03-02T22:25:23.417Z,69.43
2023-03-02T22:27:51.795Z,68.53
2023-03-02T22:30:24.462Z,68.03
2023-03-02T22:32:52.539Z,68.23
2023-03-02T22:35:23.445Z,68.60
2023-03-02T22:37:53.013Z,69.53
2023-03-02T22:40:30.171Z,67.60
2023-03-02T22:43:11.117Z,70.27
2023-03-02T22:45:42.459Z,68.27
2023-03-02T22:48:19.074Z,69.60
2023-03-02T22:50:49.082Z,70.70
2023-03-02T22:53:25.284Z,70.20
2023-03-02T22:55:56.955Z,71.70
2023-03-02T22:58:46.656Z,73.87
2023-03-02T23:01:24.892Z,73.00
2023-03-02T23:03:56.590Z,70.17
2023-03-02T23:06:28.212Z,71.07
2023-03-02T23:08:58.560Z,70.17
2023-03-02T23:11:27.881Z,69.37
2023-03-02T23:13:56.972Z,69.47
2023-03-02T23:16:29.323Z,70.37
2023-03-02T23:18:59.436Z,70.77
2023-03-02T23:21:31.292Z,70.20
2023-03-02T23:23:59.399Z,69.40
2023-03-02T23:26:27.781Z,72.43
2023-03-02T23:28:55.839Z,72.43
2023-03-02T23:31:23.967Z,72.27
2023-03-02T23:33:53.393Z,73.20
2023-03-02T23:36:21.643Z,70.67
2023-03-02T23:38:50.271Z,71.67
2023-03-02T23:41:18.590Z,71.87
2023-03-02T23:43:47.221Z,73.30
2023-03-02T23:46:15.408Z,72.30
2023-03-02T23:48:44.434Z,73.90
2023-03-02T23:51:13.921Z,74.67
2023-03-02T23:53:41.937Z,75.00
2023-03-02T23:56:10.137Z,73.57
2023-03-02T23:58:38.759Z,77.83
